<?xml version="1.0" encoding="UTF-8" standalone="no" ?>
<gpx xmlns="http://www.topografix.com/GPX/1/1" xmlns:xsi="http://www.w3.org/2001/XMLSchema-instance" xsi:schemaLocation="http://www.topografix.com/GPX/1/1 http://www.topografix.com/GPX/1/1/gpx.xsd" version="1.1" creator="VisuGPX - https://www.visugpx.com">
  <metadata>
    <name>Reze_Autour_8-19km</name>
    <desc><![CDATA[gnerando idor:5792578_5792726_5814453_5825877_6470772_8005623_8320604_9624624__]]></desc>
  </metadata>
  <trk>
    <name><![CDATA[Vertou_PirmilChausseeMoines_12.5km-8005623]]></name>
    <extensions>
      <line xmlns="http://www.topografix.com/GPX/gpx_style/0/2">
        <color>00FFFF</color>
        <width>4</width>
      </line>
    </extensions>
    <trkseg>
      <trkpt lat="47.19593" lon="-1.54311">
        <ele>7</ele>
        <time>2023-11-11T18:52:30Z</time>
      </trkpt>
      <trkpt lat="47.19575" lon="-1.54302">
        <ele>7</ele>
        <time>2023-11-11T18:52:55Z</time>
      </trkpt>
      <trkpt lat="47.19574" lon="-1.54329">
        <ele>7</ele>
        <time>2023-11-11T18:53:20Z</time>
      </trkpt>
      <trkpt lat="47.19565" lon="-1.54352">
        <ele>7</ele>
        <time>2023-11-11T18:53:44Z</time>
      </trkpt>
      <trkpt lat="47.19546" lon="-1.54362">
        <ele>7</ele>
        <time>2023-11-11T18:54:11Z</time>
      </trkpt>
      <trkpt lat="47.19529" lon="-1.54373">
        <ele>6</ele>
        <time>2023-11-11T18:54:36Z</time>
      </trkpt>
      <trkpt lat="47.19515" lon="-1.54356">
        <ele>7</ele>
        <time>2023-11-11T18:55:00Z</time>
      </trkpt>
      <trkpt lat="47.19501" lon="-1.54338">
        <ele>7</ele>
        <time>2023-11-11T18:55:25Z</time>
      </trkpt>
      <trkpt lat="47.19492" lon="-1.54315">
        <ele>7</ele>
        <time>2023-11-11T18:55:49Z</time>
      </trkpt>
      <trkpt lat="47.19461" lon="-1.54284">
        <ele>7</ele>
        <time>2023-11-11T18:56:39Z</time>
      </trkpt>
      <trkpt lat="47.1945" lon="-1.54263">
        <ele>6</ele>
        <time>2023-11-11T18:57:03Z</time>
      </trkpt>
      <trkpt lat="47.19438" lon="-1.54241">
        <ele>7</ele>
        <time>2023-11-11T18:57:28Z</time>
      </trkpt>
      <trkpt lat="47.1942" lon="-1.54226">
        <ele>7</ele>
        <time>2023-11-11T18:57:56Z</time>
      </trkpt>
      <trkpt lat="47.19388" lon="-1.54201">
        <ele>8</ele>
        <time>2023-11-11T18:58:44Z</time>
      </trkpt>
      <trkpt lat="47.19373" lon="-1.54182">
        <ele>8</ele>
        <time>2023-11-11T18:59:11Z</time>
      </trkpt>
      <trkpt lat="47.19361" lon="-1.54161">
        <ele>8</ele>
        <time>2023-11-11T18:59:36Z</time>
      </trkpt>
      <trkpt lat="47.1935" lon="-1.5414">
        <ele>9</ele>
        <time>2023-11-11T19:00:00Z</time>
      </trkpt>
      <trkpt lat="47.19338" lon="-1.54119">
        <ele>9</ele>
        <time>2023-11-11T19:00:25Z</time>
      </trkpt>
      <trkpt lat="47.19315" lon="-1.54075">
        <ele>9</ele>
        <time>2023-11-11T19:01:15Z</time>
      </trkpt>
      <trkpt lat="47.19302" lon="-1.54056">
        <ele>8</ele>
        <time>2023-11-11T19:01:39Z</time>
      </trkpt>
      <trkpt lat="47.19289" lon="-1.54037">
        <ele>8</ele>
        <time>2023-11-11T19:02:04Z</time>
      </trkpt>
      <trkpt lat="47.19279" lon="-1.54015">
        <ele>8</ele>
        <time>2023-11-11T19:02:28Z</time>
      </trkpt>
      <trkpt lat="47.19265" lon="-1.53996">
        <ele>7</ele>
        <time>2023-11-11T19:02:53Z</time>
      </trkpt>
      <trkpt lat="47.19255" lon="-1.53974">
        <ele>7</ele>
        <time>2023-11-11T19:03:17Z</time>
      </trkpt>
      <trkpt lat="47.19245" lon="-1.53951">
        <ele>7</ele>
        <time>2023-11-11T19:03:42Z</time>
      </trkpt>
      <trkpt lat="47.19234" lon="-1.5393">
        <ele>8</ele>
        <time>2023-11-11T19:04:06Z</time>
      </trkpt>
      <trkpt lat="47.19222" lon="-1.53908">
        <ele>8</ele>
        <time>2023-11-11T19:04:32Z</time>
      </trkpt>
      <trkpt lat="47.19211" lon="-1.53885">
        <ele>9</ele>
        <time>2023-11-11T19:04:57Z</time>
      </trkpt>
      <trkpt lat="47.19206" lon="-1.5386">
        <ele>9</ele>
        <time>2023-11-11T19:05:21Z</time>
      </trkpt>
      <trkpt lat="47.19192" lon="-1.53842">
        <ele>9</ele>
        <time>2023-11-11T19:05:46Z</time>
      </trkpt>
      <trkpt lat="47.19178" lon="-1.53825">
        <ele>9</ele>
        <time>2023-11-11T19:06:10Z</time>
      </trkpt>
      <trkpt lat="47.19163" lon="-1.53809">
        <ele>8</ele>
        <time>2023-11-11T19:06:35Z</time>
      </trkpt>
      <trkpt lat="47.19147" lon="-1.53796">
        <ele>8</ele>
        <time>2023-11-11T19:06:59Z</time>
      </trkpt>
      <trkpt lat="47.19129" lon="-1.53789">
        <ele>8</ele>
        <time>2023-11-11T19:07:24Z</time>
      </trkpt>
      <trkpt lat="47.19101" lon="-1.53755">
        <ele>8</ele>
        <time>2023-11-11T19:08:12Z</time>
      </trkpt>
      <trkpt lat="47.19085" lon="-1.53739">
        <ele>8</ele>
        <time>2023-11-11T19:08:38Z</time>
      </trkpt>
      <trkpt lat="47.19069" lon="-1.53726">
        <ele>8</ele>
        <time>2023-11-11T19:09:02Z</time>
      </trkpt>
      <trkpt lat="47.19054" lon="-1.53709">
        <ele>7</ele>
        <time>2023-11-11T19:09:28Z</time>
      </trkpt>
      <trkpt lat="47.19042" lon="-1.5369">
        <ele>7</ele>
        <time>2023-11-11T19:09:51Z</time>
      </trkpt>
      <trkpt lat="47.1903" lon="-1.53669">
        <ele>8</ele>
        <time>2023-11-11T19:10:16Z</time>
      </trkpt>
      <trkpt lat="47.18998" lon="-1.53643">
        <ele>8</ele>
        <time>2023-11-11T19:11:05Z</time>
      </trkpt>
      <trkpt lat="47.1899" lon="-1.53618">
        <ele>7</ele>
        <time>2023-11-11T19:11:30Z</time>
      </trkpt>
      <trkpt lat="47.18974" lon="-1.53604">
        <ele>6</ele>
        <time>2023-11-11T19:11:55Z</time>
      </trkpt>
      <trkpt lat="47.18961" lon="-1.53586">
        <ele>6</ele>
        <time>2023-11-11T19:12:19Z</time>
      </trkpt>
      <trkpt lat="47.18944" lon="-1.53573">
        <ele>6</ele>
        <time>2023-11-11T19:12:44Z</time>
      </trkpt>
      <trkpt lat="47.18926" lon="-1.53569">
        <ele>6</ele>
        <time>2023-11-11T19:13:08Z</time>
      </trkpt>
      <trkpt lat="47.18908" lon="-1.5356">
        <ele>6</ele>
        <time>2023-11-11T19:13:34Z</time>
      </trkpt>
      <trkpt lat="47.1889" lon="-1.53553">
        <ele>6</ele>
        <time>2023-11-11T19:13:59Z</time>
      </trkpt>
      <trkpt lat="47.18872" lon="-1.53544">
        <ele>6</ele>
        <time>2023-11-11T19:14:24Z</time>
      </trkpt>
      <trkpt lat="47.18856" lon="-1.53531">
        <ele>6</ele>
        <time>2023-11-11T19:14:48Z</time>
      </trkpt>
      <trkpt lat="47.18837" lon="-1.53527">
        <ele>6</ele>
        <time>2023-11-11T19:15:14Z</time>
      </trkpt>
      <trkpt lat="47.18819" lon="-1.53523">
        <ele>6</ele>
        <time>2023-11-11T19:15:38Z</time>
      </trkpt>
      <trkpt lat="47.18802" lon="-1.53515">
        <ele>6</ele>
        <time>2023-11-11T19:16:02Z</time>
      </trkpt>
      <trkpt lat="47.1879" lon="-1.53495">
        <ele>6</ele>
        <time>2023-11-11T19:16:26Z</time>
      </trkpt>
      <trkpt lat="47.18773" lon="-1.5348">
        <ele>6</ele>
        <time>2023-11-11T19:16:53Z</time>
      </trkpt>
      <trkpt lat="47.18757" lon="-1.5347">
        <ele>5</ele>
        <time>2023-11-11T19:17:16Z</time>
      </trkpt>
      <trkpt lat="47.18741" lon="-1.53455">
        <ele>5</ele>
        <time>2023-11-11T19:17:41Z</time>
      </trkpt>
      <trkpt lat="47.18727" lon="-1.53436">
        <ele>5</ele>
        <time>2023-11-11T19:18:07Z</time>
      </trkpt>
      <trkpt lat="47.18715" lon="-1.53415">
        <ele>5</ele>
        <time>2023-11-11T19:18:32Z</time>
      </trkpt>
      <trkpt lat="47.18699" lon="-1.53427">
        <ele>5</ele>
        <time>2023-11-11T19:18:56Z</time>
      </trkpt>
      <trkpt lat="47.18687" lon="-1.53449">
        <ele>5</ele>
        <time>2023-11-11T19:19:21Z</time>
      </trkpt>
      <trkpt lat="47.18671" lon="-1.53462">
        <ele>6</ele>
        <time>2023-11-11T19:19:46Z</time>
      </trkpt>
      <trkpt lat="47.18653" lon="-1.53454">
        <ele>6</ele>
        <time>2023-11-11T19:20:11Z</time>
      </trkpt>
      <trkpt lat="47.18637" lon="-1.53439">
        <ele>6</ele>
        <time>2023-11-11T19:20:36Z</time>
      </trkpt>
      <trkpt lat="47.1862" lon="-1.53428">
        <ele>5</ele>
        <time>2023-11-11T19:21:01Z</time>
      </trkpt>
      <trkpt lat="47.18606" lon="-1.5341">
        <ele>5</ele>
        <time>2023-11-11T19:21:26Z</time>
      </trkpt>
      <trkpt lat="47.18588" lon="-1.534">
        <ele>5</ele>
        <time>2023-11-11T19:21:51Z</time>
      </trkpt>
      <trkpt lat="47.18574" lon="-1.53383">
        <ele>5</ele>
        <time>2023-11-11T19:22:15Z</time>
      </trkpt>
      <trkpt lat="47.18559" lon="-1.53367">
        <ele>5</ele>
        <time>2023-11-11T19:22:40Z</time>
      </trkpt>
      <trkpt lat="47.18544" lon="-1.53352">
        <ele>5</ele>
        <time>2023-11-11T19:23:04Z</time>
      </trkpt>
      <trkpt lat="47.18528" lon="-1.5334">
        <ele>5</ele>
        <time>2023-11-11T19:23:28Z</time>
      </trkpt>
      <trkpt lat="47.18512" lon="-1.53325">
        <ele>5</ele>
        <time>2023-11-11T19:23:54Z</time>
      </trkpt>
      <trkpt lat="47.18497" lon="-1.53308">
        <ele>5</ele>
        <time>2023-11-11T19:24:19Z</time>
      </trkpt>
      <trkpt lat="47.18479" lon="-1.533">
        <ele>6</ele>
        <time>2023-11-11T19:24:44Z</time>
      </trkpt>
      <trkpt lat="47.18467" lon="-1.53279">
        <ele>5</ele>
        <time>2023-11-11T19:25:09Z</time>
      </trkpt>
      <trkpt lat="47.1845" lon="-1.53266">
        <ele>5</ele>
        <time>2023-11-11T19:25:34Z</time>
      </trkpt>
      <trkpt lat="47.18435" lon="-1.53252">
        <ele>4</ele>
        <time>2023-11-11T19:25:58Z</time>
      </trkpt>
      <trkpt lat="47.18423" lon="-1.5323">
        <ele>4</ele>
        <time>2023-11-11T19:26:24Z</time>
      </trkpt>
      <trkpt lat="47.18412" lon="-1.53208">
        <ele>5</ele>
        <time>2023-11-11T19:26:48Z</time>
      </trkpt>
      <trkpt lat="47.18395" lon="-1.53195">
        <ele>5</ele>
        <time>2023-11-11T19:27:14Z</time>
      </trkpt>
      <trkpt lat="47.18365" lon="-1.53164">
        <ele>5</ele>
        <time>2023-11-11T19:28:03Z</time>
      </trkpt>
      <trkpt lat="47.1835" lon="-1.53148">
        <ele>5</ele>
        <time>2023-11-11T19:28:28Z</time>
      </trkpt>
      <trkpt lat="47.18342" lon="-1.53125">
        <ele>5</ele>
        <time>2023-11-11T19:28:51Z</time>
      </trkpt>
      <trkpt lat="47.18328" lon="-1.53105">
        <ele>4</ele>
        <time>2023-11-11T19:29:17Z</time>
      </trkpt>
      <trkpt lat="47.18321" lon="-1.53079">
        <ele>4</ele>
        <time>2023-11-11T19:29:43Z</time>
      </trkpt>
      <trkpt lat="47.18311" lon="-1.53056">
        <ele>5</ele>
        <time>2023-11-11T19:30:07Z</time>
      </trkpt>
      <trkpt lat="47.18321" lon="-1.53034">
        <ele>4</ele>
        <time>2023-11-11T19:30:31Z</time>
      </trkpt>
      <trkpt lat="47.18321" lon="-1.53007">
        <ele>4</ele>
        <time>2023-11-11T19:30:56Z</time>
      </trkpt>
      <trkpt lat="47.18305" lon="-1.52995">
        <ele>4</ele>
        <time>2023-11-11T19:31:20Z</time>
      </trkpt>
      <trkpt lat="47.18291" lon="-1.53014">
        <ele>5</ele>
        <time>2023-11-11T19:31:45Z</time>
      </trkpt>
      <trkpt lat="47.183" lon="-1.52991">
        <ele>4</ele>
        <time>2023-11-11T19:32:09Z</time>
      </trkpt>
      <trkpt lat="47.18292" lon="-1.52967">
        <ele>4</ele>
        <time>2023-11-11T19:32:33Z</time>
      </trkpt>
      <trkpt lat="47.18279" lon="-1.52915">
        <ele>5</ele>
        <time>2023-11-11T19:33:24Z</time>
      </trkpt>
      <trkpt lat="47.18271" lon="-1.52891">
        <ele>5</ele>
        <time>2023-11-11T19:33:48Z</time>
      </trkpt>
      <trkpt lat="47.18267" lon="-1.52865">
        <ele>5</ele>
        <time>2023-11-11T19:34:12Z</time>
      </trkpt>
      <trkpt lat="47.18266" lon="-1.52837">
        <ele>5</ele>
        <time>2023-11-11T19:34:38Z</time>
      </trkpt>
      <trkpt lat="47.18259" lon="-1.52812">
        <ele>5</ele>
        <time>2023-11-11T19:35:02Z</time>
      </trkpt>
      <trkpt lat="47.18246" lon="-1.5279">
        <ele>5</ele>
        <time>2023-11-11T19:35:29Z</time>
      </trkpt>
      <trkpt lat="47.18243" lon="-1.52764">
        <ele>5</ele>
        <time>2023-11-11T19:35:52Z</time>
      </trkpt>
      <trkpt lat="47.18235" lon="-1.52739">
        <ele>6</ele>
        <time>2023-11-11T19:36:18Z</time>
      </trkpt>
      <trkpt lat="47.18235" lon="-1.52712">
        <ele>6</ele>
        <time>2023-11-11T19:36:42Z</time>
      </trkpt>
      <trkpt lat="47.18241" lon="-1.52686">
        <ele>7</ele>
        <time>2023-11-11T19:37:07Z</time>
      </trkpt>
      <trkpt lat="47.18247" lon="-1.5266">
        <ele>7</ele>
        <time>2023-11-11T19:37:32Z</time>
      </trkpt>
      <trkpt lat="47.18245" lon="-1.52633">
        <ele>7</ele>
        <time>2023-11-11T19:37:56Z</time>
      </trkpt>
      <trkpt lat="47.18232" lon="-1.52614">
        <ele>6</ele>
        <time>2023-11-11T19:38:21Z</time>
      </trkpt>
      <trkpt lat="47.18218" lon="-1.52596">
        <ele>6</ele>
        <time>2023-11-11T19:38:46Z</time>
      </trkpt>
      <trkpt lat="47.18213" lon="-1.5257">
        <ele>5</ele>
        <time>2023-11-11T19:39:10Z</time>
      </trkpt>
      <trkpt lat="47.18207" lon="-1.52545">
        <ele>5</ele>
        <time>2023-11-11T19:39:34Z</time>
      </trkpt>
      <trkpt lat="47.1819" lon="-1.52535">
        <ele>5</ele>
        <time>2023-11-11T19:39:59Z</time>
      </trkpt>
      <trkpt lat="47.18189" lon="-1.52508">
        <ele>5</ele>
        <time>2023-11-11T19:40:23Z</time>
      </trkpt>
      <trkpt lat="47.18188" lon="-1.52481">
        <ele>5</ele>
        <time>2023-11-11T19:40:48Z</time>
      </trkpt>
      <trkpt lat="47.18196" lon="-1.52456">
        <ele>4</ele>
        <time>2023-11-11T19:41:13Z</time>
      </trkpt>
      <trkpt lat="47.18192" lon="-1.52429">
        <ele>4</ele>
        <time>2023-11-11T19:41:38Z</time>
      </trkpt>
      <trkpt lat="47.18183" lon="-1.52405">
        <ele>4</ele>
        <time>2023-11-11T19:42:03Z</time>
      </trkpt>
      <trkpt lat="47.18181" lon="-1.52377">
        <ele>3</ele>
        <time>2023-11-11T19:42:28Z</time>
      </trkpt>
      <trkpt lat="47.18182" lon="-1.52349">
        <ele>3</ele>
        <time>2023-11-11T19:42:54Z</time>
      </trkpt>
      <trkpt lat="47.1819" lon="-1.52297">
        <ele>3</ele>
        <time>2023-11-11T19:43:42Z</time>
      </trkpt>
      <trkpt lat="47.1819" lon="-1.52269">
        <ele>4</ele>
        <time>2023-11-11T19:44:07Z</time>
      </trkpt>
      <trkpt lat="47.18187" lon="-1.52242">
        <ele>5</ele>
        <time>2023-11-11T19:44:32Z</time>
      </trkpt>
      <trkpt lat="47.18175" lon="-1.52221">
        <ele>5</ele>
        <time>2023-11-11T19:44:57Z</time>
      </trkpt>
      <trkpt lat="47.18166" lon="-1.52196">
        <ele>6</ele>
        <time>2023-11-11T19:45:23Z</time>
      </trkpt>
      <trkpt lat="47.18159" lon="-1.5217">
        <ele>7</ele>
        <time>2023-11-11T19:45:48Z</time>
      </trkpt>
      <trkpt lat="47.18153" lon="-1.52145">
        <ele>6</ele>
        <time>2023-11-11T19:46:12Z</time>
      </trkpt>
      <trkpt lat="47.18143" lon="-1.52122">
        <ele>6</ele>
        <time>2023-11-11T19:46:37Z</time>
      </trkpt>
      <trkpt lat="47.1813" lon="-1.52104">
        <ele>5</ele>
        <time>2023-11-11T19:47:01Z</time>
      </trkpt>
      <trkpt lat="47.1813" lon="-1.52076">
        <ele>5</ele>
        <time>2023-11-11T19:47:26Z</time>
      </trkpt>
      <trkpt lat="47.18127" lon="-1.52049">
        <ele>5</ele>
        <time>2023-11-11T19:47:51Z</time>
      </trkpt>
      <trkpt lat="47.18121" lon="-1.52023">
        <ele>5</ele>
        <time>2023-11-11T19:48:16Z</time>
      </trkpt>
      <trkpt lat="47.1812" lon="-1.51996">
        <ele>5</ele>
        <time>2023-11-11T19:48:40Z</time>
      </trkpt>
      <trkpt lat="47.18119" lon="-1.51969">
        <ele>6</ele>
        <time>2023-11-11T19:49:05Z</time>
      </trkpt>
      <trkpt lat="47.18117" lon="-1.51942">
        <ele>7</ele>
        <time>2023-11-11T19:49:30Z</time>
      </trkpt>
      <trkpt lat="47.18112" lon="-1.51915">
        <ele>7</ele>
        <time>2023-11-11T19:49:55Z</time>
      </trkpt>
      <trkpt lat="47.18104" lon="-1.51891">
        <ele>7</ele>
        <time>2023-11-11T19:50:19Z</time>
      </trkpt>
      <trkpt lat="47.18097" lon="-1.51866">
        <ele>6</ele>
        <time>2023-11-11T19:50:44Z</time>
      </trkpt>
      <trkpt lat="47.18101" lon="-1.51839">
        <ele>5</ele>
        <time>2023-11-11T19:51:09Z</time>
      </trkpt>
      <trkpt lat="47.18112" lon="-1.51818">
        <ele>5</ele>
        <time>2023-11-11T19:51:33Z</time>
      </trkpt>
      <trkpt lat="47.18127" lon="-1.51799">
        <ele>6</ele>
        <time>2023-11-11T19:51:59Z</time>
      </trkpt>
      <trkpt lat="47.18139" lon="-1.51777">
        <ele>7</ele>
        <time>2023-11-11T19:52:25Z</time>
      </trkpt>
      <trkpt lat="47.1815" lon="-1.51756">
        <ele>8</ele>
        <time>2023-11-11T19:52:49Z</time>
      </trkpt>
      <trkpt lat="47.1815" lon="-1.51727">
        <ele>7</ele>
        <time>2023-11-11T19:53:15Z</time>
      </trkpt>
      <trkpt lat="47.18144" lon="-1.51702">
        <ele>7</ele>
        <time>2023-11-11T19:53:39Z</time>
      </trkpt>
      <trkpt lat="47.18139" lon="-1.51675">
        <ele>6</ele>
        <time>2023-11-11T19:54:05Z</time>
      </trkpt>
      <trkpt lat="47.18145" lon="-1.51648">
        <ele>6</ele>
        <time>2023-11-11T19:54:30Z</time>
      </trkpt>
      <trkpt lat="47.18143" lon="-1.5162">
        <ele>7</ele>
        <time>2023-11-11T19:54:56Z</time>
      </trkpt>
      <trkpt lat="47.18143" lon="-1.51593">
        <ele>7</ele>
        <time>2023-11-11T19:55:20Z</time>
      </trkpt>
      <trkpt lat="47.18139" lon="-1.51567">
        <ele>7</ele>
        <time>2023-11-11T19:55:45Z</time>
      </trkpt>
      <trkpt lat="47.18133" lon="-1.5154">
        <ele>7</ele>
        <time>2023-11-11T19:56:10Z</time>
      </trkpt>
      <trkpt lat="47.18128" lon="-1.51514">
        <ele>7</ele>
        <time>2023-11-11T19:56:35Z</time>
      </trkpt>
      <trkpt lat="47.18119" lon="-1.51491">
        <ele>7</ele>
        <time>2023-11-11T19:56:59Z</time>
      </trkpt>
      <trkpt lat="47.18113" lon="-1.51465">
        <ele>7</ele>
        <time>2023-11-11T19:57:24Z</time>
      </trkpt>
      <trkpt lat="47.18105" lon="-1.51439">
        <ele>8</ele>
        <time>2023-11-11T19:57:50Z</time>
      </trkpt>
      <trkpt lat="47.18097" lon="-1.51415">
        <ele>8</ele>
        <time>2023-11-11T19:58:14Z</time>
      </trkpt>
      <trkpt lat="47.18086" lon="-1.51393">
        <ele>8</ele>
        <time>2023-11-11T19:58:39Z</time>
      </trkpt>
      <trkpt lat="47.1808" lon="-1.51368">
        <ele>8</ele>
        <time>2023-11-11T19:59:03Z</time>
      </trkpt>
      <trkpt lat="47.18071" lon="-1.51345">
        <ele>9</ele>
        <time>2023-11-11T19:59:27Z</time>
      </trkpt>
      <trkpt lat="47.18066" lon="-1.51318">
        <ele>9</ele>
        <time>2023-11-11T19:59:52Z</time>
      </trkpt>
      <trkpt lat="47.18059" lon="-1.51291">
        <ele>9</ele>
        <time>2023-11-11T20:00:19Z</time>
      </trkpt>
      <trkpt lat="47.18057" lon="-1.51263">
        <ele>10</ele>
        <time>2023-11-11T20:00:44Z</time>
      </trkpt>
      <trkpt lat="47.18053" lon="-1.51208">
        <ele>10</ele>
        <time>2023-11-11T20:01:34Z</time>
      </trkpt>
      <trkpt lat="47.18052" lon="-1.51181">
        <ele>9</ele>
        <time>2023-11-11T20:01:59Z</time>
      </trkpt>
      <trkpt lat="47.18035" lon="-1.51166">
        <ele>9</ele>
        <time>2023-11-11T20:02:25Z</time>
      </trkpt>
      <trkpt lat="47.18016" lon="-1.51161">
        <ele>8</ele>
        <time>2023-11-11T20:02:51Z</time>
      </trkpt>
      <trkpt lat="47.17998" lon="-1.51153">
        <ele>7</ele>
        <time>2023-11-11T20:03:16Z</time>
      </trkpt>
      <trkpt lat="47.17987" lon="-1.51176">
        <ele>7</ele>
        <time>2023-11-11T20:03:42Z</time>
      </trkpt>
      <trkpt lat="47.17976" lon="-1.51196">
        <ele>6</ele>
        <time>2023-11-11T20:04:05Z</time>
      </trkpt>
      <trkpt lat="47.17959" lon="-1.51209">
        <ele>6</ele>
        <time>2023-11-11T20:04:30Z</time>
      </trkpt>
      <trkpt lat="47.17978" lon="-1.51209">
        <ele>6</ele>
        <time>2023-11-11T20:04:56Z</time>
      </trkpt>
      <trkpt lat="47.17991" lon="-1.51228">
        <ele>7</ele>
        <time>2023-11-11T20:05:20Z</time>
      </trkpt>
      <trkpt lat="47.18002" lon="-1.51249">
        <ele>7</ele>
        <time>2023-11-11T20:05:44Z</time>
      </trkpt>
      <trkpt lat="47.17999" lon="-1.51223">
        <ele>7</ele>
        <time>2023-11-11T20:06:08Z</time>
      </trkpt>
      <trkpt lat="47.17995" lon="-1.51195">
        <ele>7</ele>
        <time>2023-11-11T20:06:34Z</time>
      </trkpt>
      <trkpt lat="47.18" lon="-1.5117">
        <ele>7</ele>
        <time>2023-11-11T20:06:58Z</time>
      </trkpt>
      <trkpt lat="47.17993" lon="-1.51145">
        <ele>7</ele>
        <time>2023-11-11T20:07:22Z</time>
      </trkpt>
      <trkpt lat="47.17977" lon="-1.51128">
        <ele>7</ele>
        <time>2023-11-11T20:07:49Z</time>
      </trkpt>
      <trkpt lat="47.17962" lon="-1.51114">
        <ele>7</ele>
        <time>2023-11-11T20:08:12Z</time>
      </trkpt>
      <trkpt lat="47.17947" lon="-1.51097">
        <ele>7</ele>
        <time>2023-11-11T20:08:38Z</time>
      </trkpt>
      <trkpt lat="47.17934" lon="-1.51079">
        <ele>8</ele>
        <time>2023-11-11T20:09:01Z</time>
      </trkpt>
      <trkpt lat="47.17923" lon="-1.51056">
        <ele>8</ele>
        <time>2023-11-11T20:09:27Z</time>
      </trkpt>
      <trkpt lat="47.17909" lon="-1.51039">
        <ele>8</ele>
        <time>2023-11-11T20:09:51Z</time>
      </trkpt>
      <trkpt lat="47.17894" lon="-1.51023">
        <ele>8</ele>
        <time>2023-11-11T20:10:16Z</time>
      </trkpt>
      <trkpt lat="47.17881" lon="-1.51004">
        <ele>7</ele>
        <time>2023-11-11T20:10:40Z</time>
      </trkpt>
      <trkpt lat="47.17868" lon="-1.50984">
        <ele>7</ele>
        <time>2023-11-11T20:11:05Z</time>
      </trkpt>
      <trkpt lat="47.17856" lon="-1.50965">
        <ele>7</ele>
        <time>2023-11-11T20:11:29Z</time>
      </trkpt>
      <trkpt lat="47.17841" lon="-1.50948">
        <ele>7</ele>
        <time>2023-11-11T20:11:54Z</time>
      </trkpt>
      <trkpt lat="47.17826" lon="-1.5093">
        <ele>7</ele>
        <time>2023-11-11T20:12:20Z</time>
      </trkpt>
      <trkpt lat="47.17811" lon="-1.50913">
        <ele>7</ele>
        <time>2023-11-11T20:12:45Z</time>
      </trkpt>
      <trkpt lat="47.17794" lon="-1.50903">
        <ele>7</ele>
        <time>2023-11-11T20:13:10Z</time>
      </trkpt>
      <trkpt lat="47.17781" lon="-1.50883">
        <ele>7</ele>
        <time>2023-11-11T20:13:35Z</time>
      </trkpt>
      <trkpt lat="47.17765" lon="-1.50868">
        <ele>7</ele>
        <time>2023-11-11T20:14:00Z</time>
      </trkpt>
      <trkpt lat="47.17736" lon="-1.50835">
        <ele>7</ele>
        <time>2023-11-11T20:14:49Z</time>
      </trkpt>
      <trkpt lat="47.17722" lon="-1.50816">
        <ele>8</ele>
        <time>2023-11-11T20:15:15Z</time>
      </trkpt>
      <trkpt lat="47.17707" lon="-1.50799">
        <ele>9</ele>
        <time>2023-11-11T20:15:40Z</time>
      </trkpt>
      <trkpt lat="47.17689" lon="-1.50792">
        <ele>9</ele>
        <time>2023-11-11T20:16:05Z</time>
      </trkpt>
      <trkpt lat="47.17676" lon="-1.50811">
        <ele>8</ele>
        <time>2023-11-11T20:16:29Z</time>
      </trkpt>
      <trkpt lat="47.17659" lon="-1.50824">
        <ele>7</ele>
        <time>2023-11-11T20:16:55Z</time>
      </trkpt>
      <trkpt lat="47.17639" lon="-1.50823">
        <ele>7</ele>
        <time>2023-11-11T20:17:21Z</time>
      </trkpt>
      <trkpt lat="47.1763" lon="-1.50799">
        <ele>8</ele>
        <time>2023-11-11T20:17:46Z</time>
      </trkpt>
      <trkpt lat="47.17629" lon="-1.50771">
        <ele>8</ele>
        <time>2023-11-11T20:18:12Z</time>
      </trkpt>
      <trkpt lat="47.17637" lon="-1.50747">
        <ele>9</ele>
        <time>2023-11-11T20:18:36Z</time>
      </trkpt>
      <trkpt lat="47.17646" lon="-1.50723">
        <ele>10</ele>
        <time>2023-11-11T20:19:01Z</time>
      </trkpt>
      <trkpt lat="47.1764" lon="-1.50697">
        <ele>10</ele>
        <time>2023-11-11T20:19:26Z</time>
      </trkpt>
      <trkpt lat="47.17627" lon="-1.50677">
        <ele>10</ele>
        <time>2023-11-11T20:19:51Z</time>
      </trkpt>
      <trkpt lat="47.17612" lon="-1.50659">
        <ele>10</ele>
        <time>2023-11-11T20:20:17Z</time>
      </trkpt>
      <trkpt lat="47.17598" lon="-1.50641">
        <ele>10</ele>
        <time>2023-11-11T20:20:41Z</time>
      </trkpt>
      <trkpt lat="47.17584" lon="-1.50623">
        <ele>10</ele>
        <time>2023-11-11T20:21:06Z</time>
      </trkpt>
      <trkpt lat="47.1757" lon="-1.50605">
        <ele>10</ele>
        <time>2023-11-11T20:21:31Z</time>
      </trkpt>
      <trkpt lat="47.17555" lon="-1.50587">
        <ele>10</ele>
        <time>2023-11-11T20:21:57Z</time>
      </trkpt>
      <trkpt lat="47.17544" lon="-1.50566">
        <ele>10</ele>
        <time>2023-11-11T20:22:21Z</time>
      </trkpt>
      <trkpt lat="47.17531" lon="-1.50546">
        <ele>10</ele>
        <time>2023-11-11T20:22:46Z</time>
      </trkpt>
      <trkpt lat="47.17517" lon="-1.50527">
        <ele>9</ele>
        <time>2023-11-11T20:23:12Z</time>
      </trkpt>
      <trkpt lat="47.17504" lon="-1.50507">
        <ele>9</ele>
        <time>2023-11-11T20:23:37Z</time>
      </trkpt>
      <trkpt lat="47.17494" lon="-1.50485">
        <ele>9</ele>
        <time>2023-11-11T20:24:01Z</time>
      </trkpt>
      <trkpt lat="47.17484" lon="-1.50462">
        <ele>9</ele>
        <time>2023-11-11T20:24:25Z</time>
      </trkpt>
      <trkpt lat="47.17475" lon="-1.50438">
        <ele>8</ele>
        <time>2023-11-11T20:24:50Z</time>
      </trkpt>
      <trkpt lat="47.17466" lon="-1.50416">
        <ele>8</ele>
        <time>2023-11-11T20:25:14Z</time>
      </trkpt>
      <trkpt lat="47.17454" lon="-1.50394">
        <ele>7</ele>
        <time>2023-11-11T20:25:39Z</time>
      </trkpt>
      <trkpt lat="47.17442" lon="-1.50373">
        <ele>6</ele>
        <time>2023-11-11T20:26:04Z</time>
      </trkpt>
      <trkpt lat="47.17431" lon="-1.50351">
        <ele>6</ele>
        <time>2023-11-11T20:26:29Z</time>
      </trkpt>
      <trkpt lat="47.17421" lon="-1.50328">
        <ele>6</ele>
        <time>2023-11-11T20:26:54Z</time>
      </trkpt>
      <trkpt lat="47.17412" lon="-1.50304">
        <ele>6</ele>
        <time>2023-11-11T20:27:18Z</time>
      </trkpt>
      <trkpt lat="47.17404" lon="-1.50279">
        <ele>6</ele>
        <time>2023-11-11T20:27:43Z</time>
      </trkpt>
      <trkpt lat="47.17393" lon="-1.50258">
        <ele>6</ele>
        <time>2023-11-11T20:28:08Z</time>
      </trkpt>
      <trkpt lat="47.17384" lon="-1.50235">
        <ele>7</ele>
        <time>2023-11-11T20:28:32Z</time>
      </trkpt>
      <trkpt lat="47.17372" lon="-1.50214">
        <ele>7</ele>
        <time>2023-11-11T20:28:56Z</time>
      </trkpt>
      <trkpt lat="47.17362" lon="-1.50192">
        <ele>8</ele>
        <time>2023-11-11T20:29:20Z</time>
      </trkpt>
      <trkpt lat="47.17349" lon="-1.50171">
        <ele>7</ele>
        <time>2023-11-11T20:29:46Z</time>
      </trkpt>
      <trkpt lat="47.17339" lon="-1.50147">
        <ele>7</ele>
        <time>2023-11-11T20:30:12Z</time>
      </trkpt>
      <trkpt lat="47.17328" lon="-1.50124">
        <ele>6</ele>
        <time>2023-11-11T20:30:37Z</time>
      </trkpt>
      <trkpt lat="47.17319" lon="-1.501">
        <ele>5</ele>
        <time>2023-11-11T20:31:02Z</time>
      </trkpt>
      <trkpt lat="47.17307" lon="-1.50077">
        <ele>5</ele>
        <time>2023-11-11T20:31:28Z</time>
      </trkpt>
      <trkpt lat="47.17296" lon="-1.50055">
        <ele>6</ele>
        <time>2023-11-11T20:31:53Z</time>
      </trkpt>
      <trkpt lat="47.17273" lon="-1.50012">
        <ele>5</ele>
        <time>2023-11-11T20:32:43Z</time>
      </trkpt>
      <trkpt lat="47.17264" lon="-1.49988">
        <ele>5</ele>
        <time>2023-11-11T20:33:08Z</time>
      </trkpt>
      <trkpt lat="47.17249" lon="-1.49938">
        <ele>5</ele>
        <time>2023-11-11T20:33:57Z</time>
      </trkpt>
      <trkpt lat="47.1724" lon="-1.49913">
        <ele>5</ele>
        <time>2023-11-11T20:34:23Z</time>
      </trkpt>
      <trkpt lat="47.17233" lon="-1.49888">
        <ele>5</ele>
        <time>2023-11-11T20:34:48Z</time>
      </trkpt>
      <trkpt lat="47.17222" lon="-1.49865">
        <ele>6</ele>
        <time>2023-11-11T20:35:13Z</time>
      </trkpt>
      <trkpt lat="47.17213" lon="-1.49842">
        <ele>6</ele>
        <time>2023-11-11T20:35:37Z</time>
      </trkpt>
      <trkpt lat="47.17203" lon="-1.49819">
        <ele>6</ele>
        <time>2023-11-11T20:36:02Z</time>
      </trkpt>
      <trkpt lat="47.17186" lon="-1.49771">
        <ele>7</ele>
        <time>2023-11-11T20:36:51Z</time>
      </trkpt>
      <trkpt lat="47.17179" lon="-1.49744">
        <ele>7</ele>
        <time>2023-11-11T20:37:17Z</time>
      </trkpt>
      <trkpt lat="47.17174" lon="-1.49718">
        <ele>8</ele>
        <time>2023-11-11T20:37:42Z</time>
      </trkpt>
      <trkpt lat="47.17165" lon="-1.49694">
        <ele>8</ele>
        <time>2023-11-11T20:38:07Z</time>
      </trkpt>
      <trkpt lat="47.1716" lon="-1.49668">
        <ele>8</ele>
        <time>2023-11-11T20:38:31Z</time>
      </trkpt>
      <trkpt lat="47.17154" lon="-1.49642">
        <ele>8</ele>
        <time>2023-11-11T20:38:56Z</time>
      </trkpt>
      <trkpt lat="47.17147" lon="-1.49617">
        <ele>7</ele>
        <time>2023-11-11T20:39:21Z</time>
      </trkpt>
      <trkpt lat="47.17133" lon="-1.49566">
        <ele>7</ele>
        <time>2023-11-11T20:40:10Z</time>
      </trkpt>
      <trkpt lat="47.17131" lon="-1.49539">
        <ele>8</ele>
        <time>2023-11-11T20:40:35Z</time>
      </trkpt>
      <trkpt lat="47.17123" lon="-1.49514">
        <ele>8</ele>
        <time>2023-11-11T20:41:00Z</time>
      </trkpt>
      <trkpt lat="47.17119" lon="-1.49487">
        <ele>9</ele>
        <time>2023-11-11T20:41:25Z</time>
      </trkpt>
      <trkpt lat="47.17112" lon="-1.49462">
        <ele>8</ele>
        <time>2023-11-11T20:41:50Z</time>
      </trkpt>
      <trkpt lat="47.17104" lon="-1.49438">
        <ele>8</ele>
        <time>2023-11-11T20:42:14Z</time>
      </trkpt>
      <trkpt lat="47.17095" lon="-1.49414">
        <ele>7</ele>
        <time>2023-11-11T20:42:39Z</time>
      </trkpt>
      <trkpt lat="47.17083" lon="-1.49392">
        <ele>7</ele>
        <time>2023-11-11T20:43:04Z</time>
      </trkpt>
      <trkpt lat="47.17077" lon="-1.49367">
        <ele>8</ele>
        <time>2023-11-11T20:43:28Z</time>
      </trkpt>
      <trkpt lat="47.17069" lon="-1.49341">
        <ele>9</ele>
        <time>2023-11-11T20:43:54Z</time>
      </trkpt>
      <trkpt lat="47.17061" lon="-1.49316">
        <ele>10</ele>
        <time>2023-11-11T20:44:19Z</time>
      </trkpt>
      <trkpt lat="47.17053" lon="-1.49292">
        <ele>10</ele>
        <time>2023-11-11T20:44:44Z</time>
      </trkpt>
      <trkpt lat="47.17045" lon="-1.49267">
        <ele>11</ele>
        <time>2023-11-11T20:45:09Z</time>
      </trkpt>
      <trkpt lat="47.17035" lon="-1.49245">
        <ele>10</ele>
        <time>2023-11-11T20:45:33Z</time>
      </trkpt>
      <trkpt lat="47.17027" lon="-1.49219">
        <ele>11</ele>
        <time>2023-11-11T20:45:59Z</time>
      </trkpt>
      <trkpt lat="47.17019" lon="-1.49195">
        <ele>11</ele>
        <time>2023-11-11T20:46:23Z</time>
      </trkpt>
      <trkpt lat="47.17013" lon="-1.49169">
        <ele>12</ele>
        <time>2023-11-11T20:46:48Z</time>
      </trkpt>
      <trkpt lat="47.17005" lon="-1.49144">
        <ele>12</ele>
        <time>2023-11-11T20:47:13Z</time>
      </trkpt>
      <trkpt lat="47.16988" lon="-1.49093">
        <ele>13</ele>
        <time>2023-11-11T20:48:04Z</time>
      </trkpt>
      <trkpt lat="47.16986" lon="-1.49066">
        <ele>14</ele>
        <time>2023-11-11T20:48:29Z</time>
      </trkpt>
      <trkpt lat="47.1698" lon="-1.4904">
        <ele>14</ele>
        <time>2023-11-11T20:48:54Z</time>
      </trkpt>
      <trkpt lat="47.16973" lon="-1.49013">
        <ele>14</ele>
        <time>2023-11-11T20:49:20Z</time>
      </trkpt>
      <trkpt lat="47.16966" lon="-1.48987">
        <ele>14</ele>
        <time>2023-11-11T20:49:46Z</time>
      </trkpt>
      <trkpt lat="47.16961" lon="-1.48961">
        <ele>14</ele>
        <time>2023-11-11T20:50:10Z</time>
      </trkpt>
      <trkpt lat="47.16955" lon="-1.48934">
        <ele>14</ele>
        <time>2023-11-11T20:50:36Z</time>
      </trkpt>
      <trkpt lat="47.16947" lon="-1.48909">
        <ele>14</ele>
        <time>2023-11-11T20:51:01Z</time>
      </trkpt>
      <trkpt lat="47.16942" lon="-1.48883">
        <ele>14</ele>
        <time>2023-11-11T20:51:25Z</time>
      </trkpt>
      <trkpt lat="47.16939" lon="-1.48857">
        <ele>14</ele>
        <time>2023-11-11T20:51:49Z</time>
      </trkpt>
      <trkpt lat="47.16932" lon="-1.48832">
        <ele>13</ele>
        <time>2023-11-11T20:52:14Z</time>
      </trkpt>
      <trkpt lat="47.16926" lon="-1.48807">
        <ele>13</ele>
        <time>2023-11-11T20:52:38Z</time>
      </trkpt>
      <trkpt lat="47.1692" lon="-1.48781">
        <ele>13</ele>
        <time>2023-11-11T20:53:03Z</time>
      </trkpt>
      <trkpt lat="47.16913" lon="-1.48756">
        <ele>13</ele>
        <time>2023-11-11T20:53:27Z</time>
      </trkpt>
      <trkpt lat="47.16908" lon="-1.4873">
        <ele>14</ele>
        <time>2023-11-11T20:53:52Z</time>
      </trkpt>
      <trkpt lat="47.169" lon="-1.48704">
        <ele>14</ele>
        <time>2023-11-11T20:54:18Z</time>
      </trkpt>
      <trkpt lat="47.16894" lon="-1.48679">
        <ele>14</ele>
        <time>2023-11-11T20:54:42Z</time>
      </trkpt>
      <trkpt lat="47.1689" lon="-1.48652">
        <ele>14</ele>
        <time>2023-11-11T20:55:07Z</time>
      </trkpt>
      <trkpt lat="47.16888" lon="-1.48625">
        <ele>14</ele>
        <time>2023-11-11T20:55:31Z</time>
      </trkpt>
      <trkpt lat="47.16878" lon="-1.48602">
        <ele>12</ele>
        <time>2023-11-11T20:55:56Z</time>
      </trkpt>
      <trkpt lat="47.16879" lon="-1.48575">
        <ele>12</ele>
        <time>2023-11-11T20:56:21Z</time>
      </trkpt>
      <trkpt lat="47.16883" lon="-1.48522">
        <ele>11</ele>
        <time>2023-11-11T20:57:09Z</time>
      </trkpt>
      <trkpt lat="47.16889" lon="-1.48496">
        <ele>11</ele>
        <time>2023-11-11T20:57:34Z</time>
      </trkpt>
      <trkpt lat="47.16895" lon="-1.4847">
        <ele>11</ele>
        <time>2023-11-11T20:57:59Z</time>
      </trkpt>
      <trkpt lat="47.16904" lon="-1.48446">
        <ele>11</ele>
        <time>2023-11-11T20:58:24Z</time>
      </trkpt>
      <trkpt lat="47.16908" lon="-1.4842">
        <ele>10</ele>
        <time>2023-11-11T20:58:48Z</time>
      </trkpt>
      <trkpt lat="47.16915" lon="-1.48395">
        <ele>10</ele>
        <time>2023-11-11T20:59:13Z</time>
      </trkpt>
      <trkpt lat="47.16922" lon="-1.4837">
        <ele>11</ele>
        <time>2023-11-11T20:59:37Z</time>
      </trkpt>
      <trkpt lat="47.16937" lon="-1.48321">
        <ele>12</ele>
        <time>2023-11-11T21:00:26Z</time>
      </trkpt>
      <trkpt lat="47.16937" lon="-1.48293">
        <ele>12</ele>
        <time>2023-11-11T21:00:51Z</time>
      </trkpt>
      <trkpt lat="47.16936" lon="-1.48266">
        <ele>11</ele>
        <time>2023-11-11T21:01:16Z</time>
      </trkpt>
      <trkpt lat="47.16928" lon="-1.48242">
        <ele>11</ele>
        <time>2023-11-11T21:01:40Z</time>
      </trkpt>
      <trkpt lat="47.16936" lon="-1.48266">
        <ele>11</ele>
        <time>2023-11-11T21:02:04Z</time>
      </trkpt>
      <trkpt lat="47.16938" lon="-1.48294">
        <ele>12</ele>
        <time>2023-11-11T21:02:30Z</time>
      </trkpt>
      <trkpt lat="47.16939" lon="-1.4832">
        <ele>12</ele>
        <time>2023-11-11T21:02:53Z</time>
      </trkpt>
      <trkpt lat="47.16936" lon="-1.48348">
        <ele>13</ele>
        <time>2023-11-11T21:03:19Z</time>
      </trkpt>
      <trkpt lat="47.16927" lon="-1.48373">
        <ele>12</ele>
        <time>2023-11-11T21:03:45Z</time>
      </trkpt>
      <trkpt lat="47.1692" lon="-1.48397">
        <ele>11</ele>
        <time>2023-11-11T21:04:09Z</time>
      </trkpt>
      <trkpt lat="47.1691" lon="-1.4842">
        <ele>11</ele>
        <time>2023-11-11T21:04:33Z</time>
      </trkpt>
      <trkpt lat="47.16905" lon="-1.48446">
        <ele>11</ele>
        <time>2023-11-11T21:04:58Z</time>
      </trkpt>
      <trkpt lat="47.16897" lon="-1.4847">
        <ele>11</ele>
        <time>2023-11-11T21:05:22Z</time>
      </trkpt>
      <trkpt lat="47.16891" lon="-1.48496">
        <ele>11</ele>
        <time>2023-11-11T21:05:47Z</time>
      </trkpt>
      <trkpt lat="47.16887" lon="-1.48522">
        <ele>12</ele>
        <time>2023-11-11T21:06:11Z</time>
      </trkpt>
      <trkpt lat="47.16886" lon="-1.48549">
        <ele>13</ele>
        <time>2023-11-11T21:06:36Z</time>
      </trkpt>
      <trkpt lat="47.16885" lon="-1.48577">
        <ele>13</ele>
        <time>2023-11-11T21:07:01Z</time>
      </trkpt>
      <trkpt lat="47.16887" lon="-1.48604">
        <ele>14</ele>
        <time>2023-11-11T21:07:26Z</time>
      </trkpt>
      <trkpt lat="47.16888" lon="-1.48631">
        <ele>14</ele>
        <time>2023-11-11T21:07:50Z</time>
      </trkpt>
      <trkpt lat="47.16896" lon="-1.48657">
        <ele>15</ele>
        <time>2023-11-11T21:08:16Z</time>
      </trkpt>
      <trkpt lat="47.16899" lon="-1.48684">
        <ele>15</ele>
        <time>2023-11-11T21:08:41Z</time>
      </trkpt>
      <trkpt lat="47.16905" lon="-1.48711">
        <ele>14</ele>
        <time>2023-11-11T21:09:07Z</time>
      </trkpt>
      <trkpt lat="47.16909" lon="-1.48736">
        <ele>14</ele>
        <time>2023-11-11T21:09:30Z</time>
      </trkpt>
      <trkpt lat="47.16915" lon="-1.48763">
        <ele>13</ele>
        <time>2023-11-11T21:09:56Z</time>
      </trkpt>
      <trkpt lat="47.16918" lon="-1.48789">
        <ele>12</ele>
        <time>2023-11-11T21:10:20Z</time>
      </trkpt>
      <trkpt lat="47.16926" lon="-1.48814">
        <ele>13</ele>
        <time>2023-11-11T21:10:45Z</time>
      </trkpt>
      <trkpt lat="47.16932" lon="-1.48839">
        <ele>13</ele>
        <time>2023-11-11T21:11:09Z</time>
      </trkpt>
      <trkpt lat="47.1694" lon="-1.48863">
        <ele>14</ele>
        <time>2023-11-11T21:11:33Z</time>
      </trkpt>
      <trkpt lat="47.16945" lon="-1.48888">
        <ele>14</ele>
        <time>2023-11-11T21:11:57Z</time>
      </trkpt>
      <trkpt lat="47.16952" lon="-1.48914">
        <ele>15</ele>
        <time>2023-11-11T21:12:22Z</time>
      </trkpt>
      <trkpt lat="47.1696" lon="-1.48938">
        <ele>15</ele>
        <time>2023-11-11T21:12:46Z</time>
      </trkpt>
      <trkpt lat="47.16967" lon="-1.48963">
        <ele>15</ele>
        <time>2023-11-11T21:13:11Z</time>
      </trkpt>
      <trkpt lat="47.16977" lon="-1.49019">
        <ele>14</ele>
        <time>2023-11-11T21:14:03Z</time>
      </trkpt>
      <trkpt lat="47.16988" lon="-1.49041">
        <ele>15</ele>
        <time>2023-11-11T21:14:28Z</time>
      </trkpt>
      <trkpt lat="47.16993" lon="-1.49069">
        <ele>15</ele>
        <time>2023-11-11T21:14:54Z</time>
      </trkpt>
      <trkpt lat="47.16998" lon="-1.49095">
        <ele>14</ele>
        <time>2023-11-11T21:15:19Z</time>
      </trkpt>
      <trkpt lat="47.17007" lon="-1.4912">
        <ele>14</ele>
        <time>2023-11-11T21:15:45Z</time>
      </trkpt>
      <trkpt lat="47.17016" lon="-1.49143">
        <ele>14</ele>
        <time>2023-11-11T21:16:09Z</time>
      </trkpt>
      <trkpt lat="47.17011" lon="-1.49181">
        <ele>11</ele>
        <time>2023-11-11T21:16:44Z</time>
      </trkpt>
      <trkpt lat="47.17038" lon="-1.4922">
        <ele>12</ele>
        <time>2023-11-11T21:17:34Z</time>
      </trkpt>
      <trkpt lat="47.17052" lon="-1.49277">
        <ele>11</ele>
        <time>2023-11-11T21:18:29Z</time>
      </trkpt>
      <trkpt lat="47.17062" lon="-1.49308">
        <ele>10</ele>
        <time>2023-11-11T21:19:00Z</time>
      </trkpt>
      <trkpt lat="47.17082" lon="-1.49374">
        <ele>8</ele>
        <time>2023-11-11T21:20:06Z</time>
      </trkpt>
      <trkpt lat="47.17104" lon="-1.49432">
        <ele>8</ele>
        <time>2023-11-11T21:21:06Z</time>
      </trkpt>
      <trkpt lat="47.17127" lon="-1.49513">
        <ele>9</ele>
        <time>2023-11-11T21:22:26Z</time>
      </trkpt>
      <trkpt lat="47.17135" lon="-1.49541">
        <ele>8</ele>
        <time>2023-11-11T21:22:53Z</time>
      </trkpt>
      <trkpt lat="47.17148" lon="-1.49599">
        <ele>7</ele>
        <time>2023-11-11T21:23:49Z</time>
      </trkpt>
      <trkpt lat="47.17152" lon="-1.49626">
        <ele>8</ele>
        <time>2023-11-11T21:24:14Z</time>
      </trkpt>
      <trkpt lat="47.1716" lon="-1.49651">
        <ele>8</ele>
        <time>2023-11-11T21:24:39Z</time>
      </trkpt>
      <trkpt lat="47.17176" lon="-1.49706">
        <ele>8</ele>
        <time>2023-11-11T21:25:33Z</time>
      </trkpt>
      <trkpt lat="47.17187" lon="-1.49748">
        <ele>7</ele>
        <time>2023-11-11T21:26:14Z</time>
      </trkpt>
      <trkpt lat="47.17207" lon="-1.4981">
        <ele>7</ele>
        <time>2023-11-11T21:27:16Z</time>
      </trkpt>
      <trkpt lat="47.17228" lon="-1.4986">
        <ele>6</ele>
        <time>2023-11-11T21:28:10Z</time>
      </trkpt>
      <trkpt lat="47.1726" lon="-1.49971">
        <ele>5</ele>
        <time>2023-11-11T21:29:59Z</time>
      </trkpt>
      <trkpt lat="47.17287" lon="-1.50032">
        <ele>6</ele>
        <time>2023-11-11T21:31:05Z</time>
      </trkpt>
      <trkpt lat="47.17311" lon="-1.50052">
        <ele>6</ele>
        <time>2023-11-11T21:31:42Z</time>
      </trkpt>
      <trkpt lat="47.17336" lon="-1.50097">
        <ele>6</ele>
        <time>2023-11-11T21:32:35Z</time>
      </trkpt>
      <trkpt lat="47.17349" lon="-1.50152">
        <ele>8</ele>
        <time>2023-11-11T21:33:27Z</time>
      </trkpt>
      <trkpt lat="47.17373" lon="-1.50199">
        <ele>8</ele>
        <time>2023-11-11T21:34:21Z</time>
      </trkpt>
      <trkpt lat="47.1739" lon="-1.50249">
        <ele>6</ele>
        <time>2023-11-11T21:35:11Z</time>
      </trkpt>
      <trkpt lat="47.17401" lon="-1.50271">
        <ele>6</ele>
        <time>2023-11-11T21:35:36Z</time>
      </trkpt>
      <trkpt lat="47.17412" lon="-1.50294">
        <ele>6</ele>
        <time>2023-11-11T21:36:02Z</time>
      </trkpt>
      <trkpt lat="47.17431" lon="-1.50342">
        <ele>7</ele>
        <time>2023-11-11T21:36:52Z</time>
      </trkpt>
      <trkpt lat="47.17455" lon="-1.50391">
        <ele>7</ele>
        <time>2023-11-11T21:37:47Z</time>
      </trkpt>
      <trkpt lat="47.17479" lon="-1.50431">
        <ele>9</ele>
        <time>2023-11-11T21:38:35Z</time>
      </trkpt>
      <trkpt lat="47.175" lon="-1.5047">
        <ele>10</ele>
        <time>2023-11-11T21:39:20Z</time>
      </trkpt>
      <trkpt lat="47.17527" lon="-1.50516">
        <ele>11</ele>
        <time>2023-11-11T21:40:16Z</time>
      </trkpt>
      <trkpt lat="47.17552" lon="-1.50562">
        <ele>11</ele>
        <time>2023-11-11T21:41:09Z</time>
      </trkpt>
      <trkpt lat="47.1758" lon="-1.50606">
        <ele>11</ele>
        <time>2023-11-11T21:42:04Z</time>
      </trkpt>
      <trkpt lat="47.17613" lon="-1.50648">
        <ele>10</ele>
        <time>2023-11-11T21:43:02Z</time>
      </trkpt>
      <trkpt lat="47.17641" lon="-1.50691">
        <ele>10</ele>
        <time>2023-11-11T21:43:56Z</time>
      </trkpt>
      <trkpt lat="47.17653" lon="-1.50711">
        <ele>11</ele>
        <time>2023-11-11T21:44:20Z</time>
      </trkpt>
      <trkpt lat="47.17634" lon="-1.50766">
        <ele>8</ele>
        <time>2023-11-11T21:45:16Z</time>
      </trkpt>
      <trkpt lat="47.17649" lon="-1.50797">
        <ele>8</ele>
        <time>2023-11-11T21:45:51Z</time>
      </trkpt>
      <trkpt lat="47.17695" lon="-1.50789">
        <ele>9</ele>
        <time>2023-11-11T21:46:52Z</time>
      </trkpt>
      <trkpt lat="47.17729" lon="-1.50819">
        <ele>8</ele>
        <time>2023-11-11T21:47:45Z</time>
      </trkpt>
      <trkpt lat="47.17747" lon="-1.50842">
        <ele>7</ele>
        <time>2023-11-11T21:48:17Z</time>
      </trkpt>
      <trkpt lat="47.17762" lon="-1.5086">
        <ele>7</ele>
        <time>2023-11-11T21:48:43Z</time>
      </trkpt>
      <trkpt lat="47.17778" lon="-1.50874">
        <ele>7</ele>
        <time>2023-11-11T21:49:08Z</time>
      </trkpt>
      <trkpt lat="47.17821" lon="-1.5093">
        <ele>7</ele>
        <time>2023-11-11T21:50:24Z</time>
      </trkpt>
      <trkpt lat="47.17838" lon="-1.50943">
        <ele>7</ele>
        <time>2023-11-11T21:50:50Z</time>
      </trkpt>
      <trkpt lat="47.1785" lon="-1.50964">
        <ele>7</ele>
        <time>2023-11-11T21:51:15Z</time>
      </trkpt>
      <trkpt lat="47.17865" lon="-1.50983">
        <ele>7</ele>
        <time>2023-11-11T21:51:41Z</time>
      </trkpt>
      <trkpt lat="47.1788" lon="-1.50998">
        <ele>8</ele>
        <time>2023-11-11T21:52:06Z</time>
      </trkpt>
      <trkpt lat="47.17895" lon="-1.51015">
        <ele>8</ele>
        <time>2023-11-11T21:52:31Z</time>
      </trkpt>
      <trkpt lat="47.17907" lon="-1.51041">
        <ele>8</ele>
        <time>2023-11-11T21:52:59Z</time>
      </trkpt>
      <trkpt lat="47.17923" lon="-1.51059">
        <ele>8</ele>
        <time>2023-11-11T21:53:26Z</time>
      </trkpt>
      <trkpt lat="47.17937" lon="-1.51083">
        <ele>8</ele>
        <time>2023-11-11T21:53:55Z</time>
      </trkpt>
      <trkpt lat="47.18004" lon="-1.51154">
        <ele>7</ele>
        <time>2023-11-11T21:55:45Z</time>
      </trkpt>
      <trkpt lat="47.18042" lon="-1.51162">
        <ele>9</ele>
        <time>2023-11-11T21:56:36Z</time>
      </trkpt>
      <trkpt lat="47.18056" lon="-1.51213">
        <ele>10</ele>
        <time>2023-11-11T21:57:26Z</time>
      </trkpt>
      <trkpt lat="47.18059" lon="-1.51241">
        <ele>10</ele>
        <time>2023-11-11T21:57:52Z</time>
      </trkpt>
      <trkpt lat="47.18062" lon="-1.51298">
        <ele>9</ele>
        <time>2023-11-11T21:58:44Z</time>
      </trkpt>
      <trkpt lat="47.18066" lon="-1.51326">
        <ele>9</ele>
        <time>2023-11-11T21:59:10Z</time>
      </trkpt>
      <trkpt lat="47.18073" lon="-1.5135">
        <ele>9</ele>
        <time>2023-11-11T21:59:33Z</time>
      </trkpt>
      <trkpt lat="47.18086" lon="-1.51382">
        <ele>8</ele>
        <time>2023-11-11T22:00:07Z</time>
      </trkpt>
      <trkpt lat="47.18094" lon="-1.51409">
        <ele>8</ele>
        <time>2023-11-11T22:00:34Z</time>
      </trkpt>
      <trkpt lat="47.18102" lon="-1.51433">
        <ele>8</ele>
        <time>2023-11-11T22:00:58Z</time>
      </trkpt>
      <trkpt lat="47.18123" lon="-1.51501">
        <ele>7</ele>
        <time>2023-11-11T22:02:06Z</time>
      </trkpt>
      <trkpt lat="47.18131" lon="-1.51527">
        <ele>7</ele>
        <time>2023-11-11T22:02:32Z</time>
      </trkpt>
      <trkpt lat="47.18139" lon="-1.51567">
        <ele>7</ele>
        <time>2023-11-11T22:03:10Z</time>
      </trkpt>
      <trkpt lat="47.1814" lon="-1.51594">
        <ele>7</ele>
        <time>2023-11-11T22:03:34Z</time>
      </trkpt>
      <trkpt lat="47.18146" lon="-1.51669">
        <ele>6</ele>
        <time>2023-11-11T22:04:43Z</time>
      </trkpt>
      <trkpt lat="47.1815" lon="-1.51703">
        <ele>7</ele>
        <time>2023-11-11T22:05:14Z</time>
      </trkpt>
      <trkpt lat="47.18151" lon="-1.51762">
        <ele>8</ele>
        <time>2023-11-11T22:06:07Z</time>
      </trkpt>
      <trkpt lat="47.18123" lon="-1.51802">
        <ele>6</ele>
        <time>2023-11-11T22:07:00Z</time>
      </trkpt>
      <trkpt lat="47.18108" lon="-1.51861">
        <ele>6</ele>
        <time>2023-11-11T22:07:57Z</time>
      </trkpt>
      <trkpt lat="47.18117" lon="-1.51917">
        <ele>7</ele>
        <time>2023-11-11T22:08:49Z</time>
      </trkpt>
      <trkpt lat="47.18118" lon="-1.51972">
        <ele>6</ele>
        <time>2023-11-11T22:09:39Z</time>
      </trkpt>
      <trkpt lat="47.18121" lon="-1.52031">
        <ele>5</ele>
        <time>2023-11-11T22:10:32Z</time>
      </trkpt>
      <trkpt lat="47.18131" lon="-1.52093">
        <ele>5</ele>
        <time>2023-11-11T22:11:30Z</time>
      </trkpt>
      <trkpt lat="47.18144" lon="-1.52121">
        <ele>6</ele>
        <time>2023-11-11T22:12:01Z</time>
      </trkpt>
      <trkpt lat="47.18155" lon="-1.52146">
        <ele>6</ele>
        <time>2023-11-11T22:12:28Z</time>
      </trkpt>
      <trkpt lat="47.18172" lon="-1.52201">
        <ele>6</ele>
        <time>2023-11-11T22:13:23Z</time>
      </trkpt>
      <trkpt lat="47.18191" lon="-1.52255">
        <ele>4</ele>
        <time>2023-11-11T22:14:18Z</time>
      </trkpt>
      <trkpt lat="47.18188" lon="-1.52314">
        <ele>3</ele>
        <time>2023-11-11T22:15:12Z</time>
      </trkpt>
      <trkpt lat="47.18182" lon="-1.52372">
        <ele>3</ele>
        <time>2023-11-11T22:16:05Z</time>
      </trkpt>
      <trkpt lat="47.18199" lon="-1.52426">
        <ele>4</ele>
        <time>2023-11-11T22:16:59Z</time>
      </trkpt>
      <trkpt lat="47.18194" lon="-1.52486">
        <ele>5</ele>
        <time>2023-11-11T22:17:54Z</time>
      </trkpt>
      <trkpt lat="47.18187" lon="-1.52517">
        <ele>5</ele>
        <time>2023-11-11T22:18:23Z</time>
      </trkpt>
      <trkpt lat="47.18204" lon="-1.52536">
        <ele>5</ele>
        <time>2023-11-11T22:18:52Z</time>
      </trkpt>
      <trkpt lat="47.18212" lon="-1.52561">
        <ele>5</ele>
        <time>2023-11-11T22:19:17Z</time>
      </trkpt>
      <trkpt lat="47.18239" lon="-1.52608">
        <ele>6</ele>
        <time>2023-11-11T22:20:13Z</time>
      </trkpt>
      <trkpt lat="47.18249" lon="-1.52637">
        <ele>7</ele>
        <time>2023-11-11T22:20:42Z</time>
      </trkpt>
      <trkpt lat="47.18249" lon="-1.52672">
        <ele>7</ele>
        <time>2023-11-11T22:21:14Z</time>
      </trkpt>
      <trkpt lat="47.18241" lon="-1.52698">
        <ele>7</ele>
        <time>2023-11-11T22:21:40Z</time>
      </trkpt>
      <trkpt lat="47.18233" lon="-1.52721">
        <ele>6</ele>
        <time>2023-11-11T22:22:03Z</time>
      </trkpt>
      <trkpt lat="47.18247" lon="-1.5278">
        <ele>5</ele>
        <time>2023-11-11T22:23:00Z</time>
      </trkpt>
      <trkpt lat="47.18268" lon="-1.5283">
        <ele>5</ele>
        <time>2023-11-11T22:23:53Z</time>
      </trkpt>
      <trkpt lat="47.18278" lon="-1.52895">
        <ele>5</ele>
        <time>2023-11-11T22:24:54Z</time>
      </trkpt>
      <trkpt lat="47.18299" lon="-1.52946">
        <ele>4</ele>
        <time>2023-11-11T22:25:48Z</time>
      </trkpt>
      <trkpt lat="47.18317" lon="-1.52998">
        <ele>4</ele>
        <time>2023-11-11T22:26:41Z</time>
      </trkpt>
      <trkpt lat="47.18315" lon="-1.53054">
        <ele>5</ele>
        <time>2023-11-11T22:27:31Z</time>
      </trkpt>
      <trkpt lat="47.18332" lon="-1.53104">
        <ele>4</ele>
        <time>2023-11-11T22:28:22Z</time>
      </trkpt>
      <trkpt lat="47.18349" lon="-1.53118">
        <ele>4</ele>
        <time>2023-11-11T22:28:48Z</time>
      </trkpt>
      <trkpt lat="47.1837" lon="-1.5316">
        <ele>5</ele>
        <time>2023-11-11T22:29:35Z</time>
      </trkpt>
      <trkpt lat="47.18404" lon="-1.5319">
        <ele>5</ele>
        <time>2023-11-11T22:30:28Z</time>
      </trkpt>
      <trkpt lat="47.18418" lon="-1.53209">
        <ele>4</ele>
        <time>2023-11-11T22:30:54Z</time>
      </trkpt>
      <trkpt lat="47.18436" lon="-1.53241">
        <ele>4</ele>
        <time>2023-11-11T22:31:31Z</time>
      </trkpt>
      <trkpt lat="47.1847" lon="-1.53269">
        <ele>5</ele>
        <time>2023-11-11T22:32:23Z</time>
      </trkpt>
      <trkpt lat="47.18503" lon="-1.53304">
        <ele>5</ele>
        <time>2023-11-11T22:33:18Z</time>
      </trkpt>
      <trkpt lat="47.18535" lon="-1.53339">
        <ele>5</ele>
        <time>2023-11-11T22:34:11Z</time>
      </trkpt>
      <trkpt lat="47.18565" lon="-1.53361">
        <ele>5</ele>
        <time>2023-11-11T22:34:56Z</time>
      </trkpt>
      <trkpt lat="47.18584" lon="-1.53381">
        <ele>4</ele>
        <time>2023-11-11T22:35:27Z</time>
      </trkpt>
      <trkpt lat="47.186" lon="-1.53396">
        <ele>5</ele>
        <time>2023-11-11T22:35:52Z</time>
      </trkpt>
      <trkpt lat="47.18615" lon="-1.53412">
        <ele>5</ele>
        <time>2023-11-11T22:36:17Z</time>
      </trkpt>
      <trkpt lat="47.18656" lon="-1.53446">
        <ele>5</ele>
        <time>2023-11-11T22:37:20Z</time>
      </trkpt>
      <trkpt lat="47.18684" lon="-1.5344">
        <ele>5</ele>
        <time>2023-11-11T22:37:57Z</time>
      </trkpt>
      <trkpt lat="47.18702" lon="-1.53404">
        <ele>5</ele>
        <time>2023-11-11T22:38:38Z</time>
      </trkpt>
      <trkpt lat="47.1872" lon="-1.534">
        <ele>5</ele>
        <time>2023-11-11T22:39:02Z</time>
      </trkpt>
      <trkpt lat="47.1873" lon="-1.53423">
        <ele>5</ele>
        <time>2023-11-11T22:39:27Z</time>
      </trkpt>
      <trkpt lat="47.18743" lon="-1.53442">
        <ele>5</ele>
        <time>2023-11-11T22:39:52Z</time>
      </trkpt>
      <trkpt lat="47.1876" lon="-1.53456">
        <ele>5</ele>
        <time>2023-11-11T22:40:17Z</time>
      </trkpt>
      <trkpt lat="47.18774" lon="-1.53474">
        <ele>6</ele>
        <time>2023-11-11T22:40:42Z</time>
      </trkpt>
      <trkpt lat="47.18794" lon="-1.53483">
        <ele>6</ele>
        <time>2023-11-11T22:41:10Z</time>
      </trkpt>
      <trkpt lat="47.18818" lon="-1.53498">
        <ele>6</ele>
        <time>2023-11-11T22:41:45Z</time>
      </trkpt>
      <trkpt lat="47.18856" lon="-1.53515">
        <ele>6</ele>
        <time>2023-11-11T22:42:38Z</time>
      </trkpt>
      <trkpt lat="47.18873" lon="-1.53527">
        <ele>6</ele>
        <time>2023-11-11T22:43:03Z</time>
      </trkpt>
      <trkpt lat="47.18903" lon="-1.53544">
        <ele>6</ele>
        <time>2023-11-11T22:43:46Z</time>
      </trkpt>
      <trkpt lat="47.18922" lon="-1.53553">
        <ele>6</ele>
        <time>2023-11-11T22:44:13Z</time>
      </trkpt>
      <trkpt lat="47.18959" lon="-1.53566">
        <ele>7</ele>
        <time>2023-11-11T22:45:03Z</time>
      </trkpt>
      <trkpt lat="47.1899" lon="-1.536">
        <ele>7</ele>
        <time>2023-11-11T22:45:55Z</time>
      </trkpt>
      <trkpt lat="47.19019" lon="-1.53639">
        <ele>8</ele>
        <time>2023-11-11T22:46:47Z</time>
      </trkpt>
      <trkpt lat="47.19037" lon="-1.53664">
        <ele>8</ele>
        <time>2023-11-11T22:47:21Z</time>
      </trkpt>
      <trkpt lat="47.19074" lon="-1.53705">
        <ele>7</ele>
        <time>2023-11-11T22:48:22Z</time>
      </trkpt>
      <trkpt lat="47.19104" lon="-1.53747">
        <ele>8</ele>
        <time>2023-11-11T22:49:18Z</time>
      </trkpt>
      <trkpt lat="47.19119" lon="-1.53764">
        <ele>8</ele>
        <time>2023-11-11T22:49:43Z</time>
      </trkpt>
      <trkpt lat="47.19132" lon="-1.53785">
        <ele>8</ele>
        <time>2023-11-11T22:50:09Z</time>
      </trkpt>
      <trkpt lat="47.19157" lon="-1.53794">
        <ele>8</ele>
        <time>2023-11-11T22:50:43Z</time>
      </trkpt>
      <trkpt lat="47.19175" lon="-1.53806">
        <ele>9</ele>
        <time>2023-11-11T22:51:09Z</time>
      </trkpt>
      <trkpt lat="47.19204" lon="-1.5385">
        <ele>9</ele>
        <time>2023-11-11T22:52:05Z</time>
      </trkpt>
      <trkpt lat="47.19231" lon="-1.53897">
        <ele>9</ele>
        <time>2023-11-11T22:53:01Z</time>
      </trkpt>
      <trkpt lat="47.19243" lon="-1.53919">
        <ele>8</ele>
        <time>2023-11-11T22:53:26Z</time>
      </trkpt>
      <trkpt lat="47.19269" lon="-1.53978">
        <ele>8</ele>
        <time>2023-11-11T22:54:30Z</time>
      </trkpt>
      <trkpt lat="47.19288" lon="-1.5401">
        <ele>9</ele>
        <time>2023-11-11T22:55:09Z</time>
      </trkpt>
      <trkpt lat="47.19325" lon="-1.54069">
        <ele>9</ele>
        <time>2023-11-11T22:56:21Z</time>
      </trkpt>
      <trkpt lat="47.1935" lon="-1.54113">
        <ele>9</ele>
        <time>2023-11-11T22:57:13Z</time>
      </trkpt>
      <trkpt lat="47.19369" lon="-1.54146">
        <ele>9</ele>
        <time>2023-11-11T22:57:53Z</time>
      </trkpt>
      <trkpt lat="47.19386" lon="-1.5417">
        <ele>9</ele>
        <time>2023-11-11T22:58:24Z</time>
      </trkpt>
      <trkpt lat="47.19417" lon="-1.54209">
        <ele>7</ele>
        <time>2023-11-11T22:59:19Z</time>
      </trkpt>
      <trkpt lat="47.19436" lon="-1.54235">
        <ele>7</ele>
        <time>2023-11-11T22:59:53Z</time>
      </trkpt>
      <trkpt lat="47.19465" lon="-1.54273">
        <ele>7</ele>
        <time>2023-11-11T23:00:45Z</time>
      </trkpt>
      <trkpt lat="47.19499" lon="-1.54312">
        <ele>7</ele>
        <time>2023-11-11T23:01:42Z</time>
      </trkpt>
      <trkpt lat="47.19529" lon="-1.54355">
        <ele>7</ele>
        <time>2023-11-11T23:02:38Z</time>
      </trkpt>
      <trkpt lat="47.19547" lon="-1.54348">
        <ele>7</ele>
        <time>2023-11-11T23:03:03Z</time>
      </trkpt>
      <trkpt lat="47.19565" lon="-1.54349">
        <ele>7</ele>
        <time>2023-11-11T23:03:27Z</time>
      </trkpt>
    </trkseg>
  </trk>
</gpx>